Aviation Digital Data Service (ADDS)

Output produced by METARs form (2038 UTC 22 May 2015)
found at http://www.aviationweather.gov/adds/metars/
 
KLNS 221953Z 28021G30KT 10SM SCT080 22/05 A3000 RMK AO2 PK WND 31030/1949 SLP159 T02170050 $
KLNS 221739Z 2218/2318 29016G26KT P6SM BKN090 
     FM222300 30012G17KT P6SM FEW090 
     FM230100 30008KT P6SM SKC 
     FM230900 33004KT P6SM SKC